sensor_id;sensor_type;location;lat;lon;timestamp;temperature;humidity
37528;DHT22;23372;52.050;4.810;2023-02-08T00:01:19;-0.80;99.90
37528;DHT22;23372;52.050;4.810;2023-02-08T00:03:45;-0.90;99.90
37528;DHT22;23372;52.050;4.810;2023-02-08T00:06:11;-0.90;99.90
37528;DHT22;23372;52.050;4.810;2023-02-08T00:08:37;-1.00;99.90
37528;DHT22;23372;52.050;4.810;2023-02-08T00:11:04;-1.10;99.90
37528;DHT22;23372;52.050;4.810;2023-02-08T00:13:30;-1.20;99.90
37528;DHT22;23372;52.050;4.810;2023-02-08T00:15:56;-1.20;99.90
37528;DHT22;23372;52.050;4.810;2023-02-08T00:18:22;-1.30;99.90
37528;DHT22;23372;52.050;4.810;2023-02-08T00:20:47;-1.30;99.90
37528;DHT22;23372;52.050;4.810;2023-02-08T00:23:14;-1.30;99.90
37528;DHT22;23372;52.050;4.810;2023-02-08T00:25:40;-1.30;99.90
37528;DHT22;23372;52.050;4.810;2023-02-08T00:28:06;-1.30;99.90
37528;DHT22;23372;52.050;4.810;2023-02-08T00:30:32;-1.30;99.90
37528;DHT22;23372;52.050;4.810;2023-02-08T00:32:57;-1.30;99.90
37528;DHT22;23372;52.050;4.810;2023-02-08T00:35:25;-1.30;99.90
37528;DHT22;23372;52.050;4.810;2023-02-08T00:37:51;-1.30;99.90
37528;DHT22;23372;52.050;4.810;2023-02-08T00:40:16;-1.30;99.90
37528;DHT22;23372;52.050;4.810;2023-02-08T00:42:42;-1.30;99.90
37528;DHT22;23372;52.050;4.810;2023-02-08T00:45:08;-1.30;99.90
37528;DHT22;23372;52.050;4.810;2023-02-08T00:47:33;-1.30;99.90
37528;DHT22;23372;52.050;4.810;2023-02-08T00:49:59;-1.30;99.90
37528;DHT22;23372;52.050;4.810;2023-02-08T00:52:24;-1.30;99.90
37528;DHT22;23372;52.050;4.810;2023-02-08T00:54:50;-1.40;99.90
37528;DHT22;23372;52.050;4.810;2023-02-08T00:57:15;-1.40;99.90
37528;DHT22;23372;52.050;4.810;2023-02-08T00:59:41;-1.40;99.90
37528;DHT22;23372;52.050;4.810;2023-02-08T01:02:07;-1.40;99.90
37528;DHT22;23372;52.050;4.810;2023-02-08T01:04:32;-1.50;99.90
37528;DHT22;23372;52.050;4.810;2023-02-08T01:06:58;-1.40;99.90
37528;DHT22;23372;52.050;4.810;2023-02-08T01:09:24;-1.40;99.90
37528;DHT22;23372;52.050;4.810;2023-02-08T01:11:50;-1.40;99.90
37528;DHT22;23372;52.050;4.810;2023-02-08T01:14:16;-1.40;99.90
37528;DHT22;23372;52.050;4.810;2023-02-08T01:16:42;-1.40;99.90
37528;DHT22;23372;52.050;4.810;2023-02-08T01:19:07;-1.40;99.90
37528;DHT22;23372;52.050;4.810;2023-02-08T01:21:35;-1.40;99.90
37528;DHT22;23372;52.050;4.810;2023-02-08T01:24:01;-1.50;99.90
37528;DHT22;23372;52.050;4.810;2023-02-08T01:26:27;-1.50;99.90
37528;DHT22;23372;52.050;4.810;2023-02-08T01:28:54;-1.40;99.90
37528;DHT22;23372;52.050;4.810;2023-02-08T01:31:23;-1.40;99.90
37528;DHT22;23372;52.050;4.810;2023-02-08T01:33:49;-1.40;99.90
37528;DHT22;23372;52.050;4.810;2023-02-08T01:36:16;-1.40;99.90
37528;DHT22;23372;52.050;4.810;2023-02-08T01:38:42;-1.40;99.90
37528;DHT22;23372;52.050;4.810;2023-02-08T01:41:22;-1.40;99.90
37528;DHT22;23372;52.050;4.810;2023-02-08T01:46:22;-1.40;99.90
37528;DHT22;23372;52.050;4.810;2023-02-08T01:48:48;-1.40;99.90
37528;DHT22;23372;52.050;4.810;2023-02-08T01:51:23;-1.40;99.90
37528;DHT22;23372;52.050;4.810;2023-02-08T01:53:52;-1.40;99.90
37528;DHT22;23372;52.050;4.810;2023-02-08T01:56:33;-1.40;99.90
37528;DHT22;23372;52.050;4.810;2023-02-08T01:59:05;-1.40;99.90
37528;DHT22;23372;52.050;4.810;2023-02-08T02:01:32;-1.40;99.90
37528;DHT22;23372;52.050;4.810;2023-02-08T02:04:02;-1.30;99.90
37528;DHT22;23372;52.050;4.810;2023-02-08T02:06:33;-1.40;99.90
37528;DHT22;23372;52.050;4.810;2023-02-08T02:09:19;-1.40;99.90
37528;DHT22;23372;52.050;4.810;2023-02-08T02:11:48;-1.40;99.90
37528;DHT22;23372;52.050;4.810;2023-02-08T02:14:14;-1.40;99.90
37528;DHT22;23372;52.050;4.810;2023-02-08T02:16:40;-1.40;99.90
37528;DHT22;23372;52.050;4.810;2023-02-08T02:19:13;-1.40;99.90
37528;DHT22;23372;52.050;4.810;2023-02-08T02:21:56;-1.40;99.90
37528;DHT22;23372;52.050;4.810;2023-02-08T02:24:32;-1.40;99.90
37528;DHT22;23372;52.050;4.810;2023-02-08T02:30:13;-1.40;99.90
37528;DHT22;23372;52.050;4.810;2023-02-08T02:33:28;-1.50;99.90
37528;DHT22;23372;52.050;4.810;2023-02-08T02:35:59;-1.50;99.90
37528;DHT22;23372;52.050;4.810;2023-02-08T02:41:11;-1.50;99.90
37528;DHT22;23372;52.050;4.810;2023-02-08T02:44:04;-1.50;99.90
37528;DHT22;23372;52.050;4.810;2023-02-08T02:46:47;-1.60;99.90
37528;DHT22;23372;52.050;4.810;2023-02-08T02:49:23;-1.70;99.90
37528;DHT22;23372;52.050;4.810;2023-02-08T02:52:11;-1.70;99.90
37528;DHT22;23372;52.050;4.810;2023-02-08T02:54:50;-1.70;99.90
37528;DHT22;23372;52.050;4.810;2023-02-08T02:57:20;-1.70;99.90
37528;DHT22;23372;52.050;4.810;2023-02-08T02:59:47;-1.70;99.90
37528;DHT22;23372;52.050;4.810;2023-02-08T03:02:13;-1.70;99.90
37528;DHT22;23372;52.050;4.810;2023-02-08T03:10:03;-1.70;99.90
37528;DHT22;23372;52.050;4.810;2023-02-08T03:12:57;-1.70;99.90
37528;DHT22;23372;52.050;4.810;2023-02-08T03:20:32;-1.70;99.90
37528;DHT22;23372;52.050;4.810;2023-02-08T03:28:28;-1.80;99.90
37528;DHT22;23372;52.050;4.810;2023-02-08T03:33:45;-1.80;99.90
37528;DHT22;23372;52.050;4.810;2023-02-08T03:38:43;-1.90;99.90
37528;DHT22;23372;52.050;4.810;2023-02-08T03:41:16;-1.90;99.90
37528;DHT22;23372;52.050;4.810;2023-02-08T03:43:55;-1.80;99.90
37528;DHT22;23372;52.050;4.810;2023-02-08T03:46:25;-1.80;99.90
37528;DHT22;23372;52.050;4.810;2023-02-08T03:48:58;-1.80;99.90
37528;DHT22;23372;52.050;4.810;2023-02-08T03:51:25;-1.80;99.90
37528;DHT22;23372;52.050;4.810;2023-02-08T03:53:52;-1.80;99.90
37528;DHT22;23372;52.050;4.810;2023-02-08T03:56:27;-1.80;99.90
37528;DHT22;23372;52.050;4.810;2023-02-08T03:59:02;-1.80;99.90
37528;DHT22;23372;52.050;4.810;2023-02-08T04:01:32;-1.80;99.90
37528;DHT22;23372;52.050;4.810;2023-02-08T04:04:01;-1.90;99.90
37528;DHT22;23372;52.050;4.810;2023-02-08T04:06:27;-1.90;99.90
37528;DHT22;23372;52.050;4.810;2023-02-08T04:08:53;-1.90;99.90
37528;DHT22;23372;52.050;4.810;2023-02-08T04:11:18;-2.00;99.90
37528;DHT22;23372;52.050;4.810;2023-02-08T04:13:44;-2.00;99.90
37528;DHT22;23372;52.050;4.810;2023-02-08T04:16:12;-2.00;99.90
37528;DHT22;23372;52.050;4.810;2023-02-08T04:18:38;-2.00;99.90
37528;DHT22;23372;52.050;4.810;2023-02-08T04:21:04;-2.00;99.90
37528;DHT22;23372;52.050;4.810;2023-02-08T04:23:30;-2.00;99.90
37528;DHT22;23372;52.050;4.810;2023-02-08T04:25:55;-2.10;99.90
37528;DHT22;23372;52.050;4.810;2023-02-08T04:28:21;-2.00;99.90
37528;DHT22;23372;52.050;4.810;2023-02-08T04:30:46;-2.00;99.90
37528;DHT22;23372;52.050;4.810;2023-02-08T04:33:12;-2.00;99.90
37528;DHT22;23372;52.050;4.810;2023-02-08T04:35:40;-2.00;99.90
37528;DHT22;23372;52.050;4.810;2023-02-08T04:38:06;-2.00;99.90
37528;DHT22;23372;52.050;4.810;2023-02-08T04:40:31;-2.00;99.90
37528;DHT22;23372;52.050;4.810;2023-02-08T04:42:57;-2.00;99.90
37528;DHT22;23372;52.050;4.810;2023-02-08T04:45:23;-2.00;99.90
37528;DHT22;23372;52.050;4.810;2023-02-08T04:47:49;-2.10;99.90
37528;DHT22;23372;52.050;4.810;2023-02-08T04:50:15;-2.10;99.90
37528;DHT22;23372;52.050;4.810;2023-02-08T04:52:41;-2.10;99.90
37528;DHT22;23372;52.050;4.810;2023-02-08T04:55:06;-2.10;99.90
37528;DHT22;23372;52.050;4.810;2023-02-08T04:57:32;-2.10;99.90
37528;DHT22;23372;52.050;4.810;2023-02-08T04:59:58;-2.10;99.90
37528;DHT22;23372;52.050;4.810;2023-02-08T05:02:23;-2.10;99.90
37528;DHT22;23372;52.050;4.810;2023-02-08T05:04:49;-2.20;99.90
37528;DHT22;23372;52.050;4.810;2023-02-08T05:07:14;-2.20;99.90
37528;DHT22;23372;52.050;4.810;2023-02-08T05:09:40;-2.20;99.90
37528;DHT22;23372;52.050;4.810;2023-02-08T05:12:05;-2.20;99.90
37528;DHT22;23372;52.050;4.810;2023-02-08T05:14:31;-2.20;99.90
37528;DHT22;23372;52.050;4.810;2023-02-08T05:16:56;-2.30;99.90
37528;DHT22;23372;52.050;4.810;2023-02-08T05:19:22;-2.30;99.90
37528;DHT22;23372;52.050;4.810;2023-02-08T05:21:47;-2.40;99.90
37528;DHT22;23372;52.050;4.810;2023-02-08T05:24:13;-2.40;99.90
37528;DHT22;23372;52.050;4.810;2023-02-08T05:26:40;-2.40;99.90
37528;DHT22;23372;52.050;4.810;2023-02-08T05:29:05;-2.40;99.90
37528;DHT22;23372;52.050;4.810;2023-02-08T05:31:31;-2.30;99.90
37528;DHT22;23372;52.050;4.810;2023-02-08T05:33:57;-2.40;99.90
37528;DHT22;23372;52.050;4.810;2023-02-08T05:36:22;-2.30;99.90
37528;DHT22;23372;52.050;4.810;2023-02-08T05:38:48;-2.30;99.90
37528;DHT22;23372;52.050;4.810;2023-02-08T05:41:15;-2.30;99.90
37528;DHT22;23372;52.050;4.810;2023-02-08T05:43:41;-2.30;99.90
37528;DHT22;23372;52.050;4.810;2023-02-08T05:46:06;-2.40;99.90
37528;DHT22;23372;52.050;4.810;2023-02-08T05:48:33;-2.30;99.90
37528;DHT22;23372;52.050;4.810;2023-02-08T05:50:59;-2.40;99.90
37528;DHT22;23372;52.050;4.810;2023-02-08T05:53:25;-2.50;99.90
37528;DHT22;23372;52.050;4.810;2023-02-08T05:55:51;-2.50;99.90
37528;DHT22;23372;52.050;4.810;2023-02-08T05:58:17;-2.50;99.90
37528;DHT22;23372;52.050;4.810;2023-02-08T06:00:43;-2.40;99.90
37528;DHT22;23372;52.050;4.810;2023-02-08T06:03:08;-2.40;99.90
37528;DHT22;23372;52.050;4.810;2023-02-08T06:05:35;-2.40;99.90
37528;DHT22;23372;52.050;4.810;2023-02-08T06:08:01;-2.40;99.90
37528;DHT22;23372;52.050;4.810;2023-02-08T06:10:27;-2.40;99.90
37528;DHT22;23372;52.050;4.810;2023-02-08T06:12:52;-2.40;99.90
37528;DHT22;23372;52.050;4.810;2023-02-08T06:15:18;-2.60;99.90
37528;DHT22;23372;52.050;4.810;2023-02-08T06:17:43;-2.70;99.90
37528;DHT22;23372;52.050;4.810;2023-02-08T06:20:09;-2.80;99.90
37528;DHT22;23372;52.050;4.810;2023-02-08T06:22:35;-2.80;99.90
37528;DHT22;23372;52.050;4.810;2023-02-08T06:25:01;-2.80;99.90
37528;DHT22;23372;52.050;4.810;2023-02-08T06:27:26;-2.70;99.90
37528;DHT22;23372;52.050;4.810;2023-02-08T06:29:52;-2.70;99.90
37528;DHT22;23372;52.050;4.810;2023-02-08T06:32:18;-2.80;99.90
37528;DHT22;23372;52.050;4.810;2023-02-08T06:34:43;-2.80;99.90
37528;DHT22;23372;52.050;4.810;2023-02-08T06:37:09;-2.80;99.90
37528;DHT22;23372;52.050;4.810;2023-02-08T06:39:34;-2.80;99.90
37528;DHT22;23372;52.050;4.810;2023-02-08T06:42:00;-2.70;99.90
37528;DHT22;23372;52.050;4.810;2023-02-08T06:44:25;-2.60;99.90
37528;DHT22;23372;52.050;4.810;2023-02-08T06:46:51;-2.60;99.90
37528;DHT22;23372;52.050;4.810;2023-02-08T06:49:17;-2.60;99.90
37528;DHT22;23372;52.050;4.810;2023-02-08T06:51:43;-2.60;99.90
37528;DHT22;23372;52.050;4.810;2023-02-08T06:54:09;-2.70;99.90
37528;DHT22;23372;52.050;4.810;2023-02-08T06:56:35;-2.80;99.90
37528;DHT22;23372;52.050;4.810;2023-02-08T06:59:00;-2.70;99.90
37528;DHT22;23372;52.050;4.810;2023-02-08T07:01:26;-2.70;99.90
37528;DHT22;23372;52.050;4.810;2023-02-08T07:03:51;-2.70;99.90
37528;DHT22;23372;52.050;4.810;2023-02-08T07:06:18;-2.70;99.90
37528;DHT22;23372;52.050;4.810;2023-02-08T07:08:45;-2.70;99.90
37528;DHT22;23372;52.050;4.810;2023-02-08T07:11:15;-2.70;99.90
37528;DHT22;23372;52.050;4.810;2023-02-08T07:13:41;-2.70;99.90
37528;DHT22;23372;52.050;4.810;2023-02-08T07:16:08;-2.70;99.90
37528;DHT22;23372;52.050;4.810;2023-02-08T07:18:35;-2.70;99.90
37528;DHT22;23372;52.050;4.810;2023-02-08T07:21:01;-2.70;99.90
37528;DHT22;23372;52.050;4.810;2023-02-08T07:23:27;-2.60;99.90
37528;DHT22;23372;52.050;4.810;2023-02-08T07:26:00;-2.60;99.90
37528;DHT22;23372;52.050;4.810;2023-02-08T07:28:26;-2.60;99.90
37528;DHT22;23372;52.050;4.810;2023-02-08T07:30:53;-2.50;99.90
37528;DHT22;23372;52.050;4.810;2023-02-08T07:33:19;-2.50;99.90
37528;DHT22;23372;52.050;4.810;2023-02-08T07:35:44;-2.50;99.90
37528;DHT22;23372;52.050;4.810;2023-02-08T07:38:10;-2.40;99.90
37528;DHT22;23372;52.050;4.810;2023-02-08T07:40:35;-2.40;99.90
37528;DHT22;23372;52.050;4.810;2023-02-08T07:43:01;-2.40;99.90
37528;DHT22;23372;52.050;4.810;2023-02-08T07:45:27;-2.30;99.90
37528;DHT22;23372;52.050;4.810;2023-02-08T07:47:52;-2.30;99.90
37528;DHT22;23372;52.050;4.810;2023-02-08T07:50:18;-2.30;99.90
37528;DHT22;23372;52.050;4.810;2023-02-08T07:52:43;-2.20;99.90
37528;DHT22;23372;52.050;4.810;2023-02-08T07:55:11;-2.20;99.90
37528;DHT22;23372;52.050;4.810;2023-02-08T07:57:44;-2.20;99.90
37528;DHT22;23372;52.050;4.810;2023-02-08T08:00:11;-2.10;99.90
37528;DHT22;23372;52.050;4.810;2023-02-08T08:02:36;-2.10;99.90
37528;DHT22;23372;52.050;4.810;2023-02-08T08:05:02;-2.10;99.90
37528;DHT22;23372;52.050;4.810;2023-02-08T08:07:28;-2.00;99.90
37528;DHT22;23372;52.050;4.810;2023-02-08T08:09:53;-1.90;99.90
37528;DHT22;23372;52.050;4.810;2023-02-08T08:12:19;-1.90;99.90
37528;DHT22;23372;52.050;4.810;2023-02-08T08:14:45;-1.80;99.90
37528;DHT22;23372;52.050;4.810;2023-02-08T08:17:11;-1.80;99.90
37528;DHT22;23372;52.050;4.810;2023-02-08T08:19:37;-1.70;99.90
37528;DHT22;23372;52.050;4.810;2023-02-08T08:22:03;-1.70;99.90
37528;DHT22;23372;52.050;4.810;2023-02-08T08:24:28;-1.70;99.90
37528;DHT22;23372;52.050;4.810;2023-02-08T08:26:56;-1.60;99.90
37528;DHT22;23372;52.050;4.810;2023-02-08T08:29:21;-1.50;99.90
37528;DHT22;23372;52.050;4.810;2023-02-08T08:31:47;-1.50;99.90
37528;DHT22;23372;52.050;4.810;2023-02-08T08:34:13;-1.40;99.90
37528;DHT22;23372;52.050;4.810;2023-02-08T08:36:38;-1.40;99.90
37528;DHT22;23372;52.050;4.810;2023-02-08T08:39:04;-1.30;99.90
37528;DHT22;23372;52.050;4.810;2023-02-08T08:41:30;-1.30;99.90
37528;DHT22;23372;52.050;4.810;2023-02-08T08:43:55;-1.20;99.90
37528;DHT22;23372;52.050;4.810;2023-02-08T08:46:21;-1.00;99.90
37528;DHT22;23372;52.050;4.810;2023-02-08T08:48:46;-0.70;99.90
37528;DHT22;23372;52.050;4.810;2023-02-08T08:51:13;-0.60;99.90
37528;DHT22;23372;52.050;4.810;2023-02-08T08:53:39;-0.40;99.90
37528;DHT22;23372;52.050;4.810;2023-02-08T08:56:05;-0.30;99.90
37528;DHT22;23372;52.050;4.810;2023-02-08T08:58:31;-0.30;99.90
37528;DHT22;23372;52.050;4.810;2023-02-08T09:00:57;-0.40;99.90
37528;DHT22;23372;52.050;4.810;2023-02-08T09:03:25;-0.40;99.90
37528;DHT22;23372;52.050;4.810;2023-02-08T09:05:50;-0.30;99.90
37528;DHT22;23372;52.050;4.810;2023-02-08T09:08:16;-0.30;99.90
37528;DHT22;23372;52.050;4.810;2023-02-08T09:10:42;-0.20;99.90
37528;DHT22;23372;52.050;4.810;2023-02-08T09:13:08;-0.10;99.90
37528;DHT22;23372;52.050;4.810;2023-02-08T09:15:38;-0.20;99.90
37528;DHT22;23372;52.050;4.810;2023-02-08T09:18:03;-0.20;99.90
37528;DHT22;23372;52.050;4.810;2023-02-08T09:20:29;-0.20;99.90
37528;DHT22;23372;52.050;4.810;2023-02-08T09:22:55;0.00;99.90
37528;DHT22;23372;52.050;4.810;2023-02-08T09:25:21;0.10;99.90
37528;DHT22;23372;52.050;4.810;2023-02-08T09:27:46;0.50;99.90
37528;DHT22;23372;52.050;4.810;2023-02-08T09:30:12;1.00;99.90
37528;DHT22;23372;52.050;4.810;2023-02-08T09:32:38;1.00;99.90
37528;DHT22;23372;52.050;4.810;2023-02-08T09:35:05;1.00;99.90
37528;DHT22;23372;52.050;4.810;2023-02-08T09:37:30;1.00;99.90
37528;DHT22;23372;52.050;4.810;2023-02-08T09:39:56;0.90;99.90
37528;DHT22;23372;52.050;4.810;2023-02-08T09:42:34;1.20;99.90
37528;DHT22;23372;52.050;4.810;2023-02-08T09:47:56;1.60;99.90
37528;DHT22;23372;52.050;4.810;2023-02-08T09:50:33;1.40;99.90
37528;DHT22;23372;52.050;4.810;2023-02-08T09:53:11;1.40;99.90
37528;DHT22;23372;52.050;4.810;2023-02-08T09:55:45;1.50;99.90
37528;DHT22;23372;52.050;4.810;2023-02-08T09:58:48;1.60;99.90
37528;DHT22;23372;52.050;4.810;2023-02-08T10:01:19;2.00;99.90
37528;DHT22;23372;52.050;4.810;2023-02-08T10:03:46;2.50;99.90
37528;DHT22;23372;52.050;4.810;2023-02-08T10:06:15;3.50;99.90
37528;DHT22;23372;52.050;4.810;2023-02-08T10:08:42;4.50;99.90
37528;DHT22;23372;52.050;4.810;2023-02-08T10:11:22;4.50;99.90
37528;DHT22;23372;52.050;4.810;2023-02-08T10:13:57;4.10;99.90
37528;DHT22;23372;52.050;4.810;2023-02-08T10:21:54;5.10;99.90
37528;DHT22;23372;52.050;4.810;2023-02-08T10:27:39;6.20;99.90
37528;DHT22;23372;52.050;4.810;2023-02-08T10:33:41;8.40;99.90
37528;DHT22;23372;52.050;4.810;2023-02-08T10:36:17;7.50;99.90
37528;DHT22;23372;52.050;4.810;2023-02-08T10:38:44;7.30;99.90
37528;DHT22;23372;52.050;4.810;2023-02-08T10:41:18;7.10;99.90
37528;DHT22;23372;52.050;4.810;2023-02-08T10:43:48;7.80;99.90
37528;DHT22;23372;52.050;4.810;2023-02-08T10:47:01;7.10;99.90
37528;DHT22;23372;52.050;4.810;2023-02-08T10:49:34;8.10;99.90
37528;DHT22;23372;52.050;4.810;2023-02-08T10:52:03;7.50;99.90
37528;DHT22;23372;52.050;4.810;2023-02-08T10:54:30;7.00;99.90
37528;DHT22;23372;52.050;4.810;2023-02-08T10:57:03;7.80;99.90
37528;DHT22;23372;52.050;4.810;2023-02-08T10:59:37;7.60;99.90
37528;DHT22;23372;52.050;4.810;2023-02-08T11:02:20;7.20;99.90
37528;DHT22;23372;52.050;4.810;2023-02-08T11:07:24;7.10;99.90
37528;DHT22;23372;52.050;4.810;2023-02-08T11:09:50;8.90;99.90
37528;DHT22;23372;52.050;4.810;2023-02-08T11:12:20;8.30;99.90
37528;DHT22;23372;52.050;4.810;2023-02-08T11:14:49;8.40;99.90
37528;DHT22;23372;52.050;4.810;2023-02-08T11:17:29;7.90;99.90
37528;DHT22;23372;52.050;4.810;2023-02-08T11:19:57;6.70;99.90
37528;DHT22;23372;52.050;4.810;2023-02-08T11:22:26;5.80;99.90
37528;DHT22;23372;52.050;4.810;2023-02-08T11:25:00;5.40;99.90
37528;DHT22;23372;52.050;4.810;2023-02-08T11:27:52;4.90;99.90
37528;DHT22;23372;52.050;4.810;2023-02-08T11:30:22;4.60;99.90
37528;DHT22;23372;52.050;4.810;2023-02-08T11:33:07;4.70;99.90
37528;DHT22;23372;52.050;4.810;2023-02-08T11:35:34;4.70;99.90
37528;DHT22;23372;52.050;4.810;2023-02-08T11:38:00;4.60;99.90
37528;DHT22;23372;52.050;4.810;2023-02-08T11:42:51;4.60;99.90
37528;DHT22;23372;52.050;4.810;2023-02-08T11:45:27;4.70;99.90
37528;DHT22;23372;52.050;4.810;2023-02-08T11:47:54;4.90;99.90
37528;DHT22;23372;52.050;4.810;2023-02-08T11:50:24;5.00;99.90
37528;DHT22;23372;52.050;4.810;2023-02-08T11:53:01;5.10;99.90
37528;DHT22;23372;52.050;4.810;2023-02-08T11:55:31;5.30;99.90
37528;DHT22;23372;52.050;4.810;2023-02-08T12:00:37;5.50;99.90
37528;DHT22;23372;52.050;4.810;2023-02-08T12:03:15;5.60;99.90
37528;DHT22;23372;52.050;4.810;2023-02-08T12:06:01;5.60;99.90
37528;DHT22;23372;52.050;4.810;2023-02-08T12:11:22;5.80;99.90
37528;DHT22;23372;52.050;4.810;2023-02-08T12:14:07;5.80;99.90
37528;DHT22;23372;52.050;4.810;2023-02-08T12:16:58;5.90;99.90
37528;DHT22;23372;52.050;4.810;2023-02-08T12:19:55;6.00;99.90
37528;DHT22;23372;52.050;4.810;2023-02-08T12:22:28;6.10;99.90
37528;DHT22;23372;52.050;4.810;2023-02-08T12:27:47;5.90;99.90
37528;DHT22;23372;52.050;4.810;2023-02-08T12:30:33;5.80;99.90
37528;DHT22;23372;52.050;4.810;2023-02-08T12:33:25;5.80;99.90
37528;DHT22;23372;52.050;4.810;2023-02-08T12:41:38;5.70;99.90
37528;DHT22;23372;52.050;4.810;2023-02-08T12:55:23;5.80;99.90
37528;DHT22;23372;52.050;4.810;2023-02-08T12:57:53;5.90;99.90
37528;DHT22;23372;52.050;4.810;2023-02-08T13:00:26;6.00;99.90
37528;DHT22;23372;52.050;4.810;2023-02-08T13:05:52;5.90;99.90
37528;DHT22;23372;52.050;4.810;2023-02-08T13:08:25;5.90;99.90
37528;DHT22;23372;52.050;4.810;2023-02-08T13:10:55;5.90;99.90
37528;DHT22;23372;52.050;4.810;2023-02-08T13:13:30;5.90;99.90
37528;DHT22;23372;52.050;4.810;2023-02-08T13:16:22;5.80;99.90
37528;DHT22;23372;52.050;4.810;2023-02-08T13:21:46;5.60;99.90
37528;DHT22;23372;52.050;4.810;2023-02-08T13:24:30;5.60;99.90
37528;DHT22;23372;52.050;4.810;2023-02-08T13:26:57;5.50;99.90
37528;DHT22;23372;52.050;4.810;2023-02-08T13:29:23;5.60;99.90
37528;DHT22;23372;52.050;4.810;2023-02-08T13:31:53;5.60;99.90
37528;DHT22;23372;52.050;4.810;2023-02-08T13:34:43;5.50;99.90
37528;DHT22;23372;52.050;4.810;2023-02-08T13:37:36;5.50;99.90
37528;DHT22;23372;52.050;4.810;2023-02-08T13:40:18;5.60;99.90
37528;DHT22;23372;52.050;4.810;2023-02-08T13:43:31;5.70;99.90
37528;DHT22;23372;52.050;4.810;2023-02-08T13:46:01;5.70;99.90
37528;DHT22;23372;52.050;4.810;2023-02-08T13:48:46;5.80;99.90
37528;DHT22;23372;52.050;4.810;2023-02-08T13:59:04;5.70;99.90
37528;DHT22;23372;52.050;4.810;2023-02-08T14:01:32;5.80;99.90
37528;DHT22;23372;52.050;4.810;2023-02-08T14:06:35;5.90;99.90
37528;DHT22;23372;52.050;4.810;2023-02-08T14:11:49;5.90;99.90
37528;DHT22;23372;52.050;4.810;2023-02-08T14:14:27;5.90;99.90
37528;DHT22;23372;52.050;4.810;2023-02-08T14:19:28;5.90;99.90
37528;DHT22;23372;52.050;4.810;2023-02-08T14:22:23;5.90;99.90
37528;DHT22;23372;52.050;4.810;2023-02-08T14:25:03;5.80;99.90
37528;DHT22;23372;52.050;4.810;2023-02-08T14:27:39;5.80;99.90
37528;DHT22;23372;52.050;4.810;2023-02-08T14:32:42;5.80;99.90
37528;DHT22;23372;52.050;4.810;2023-02-08T14:35:20;5.80;99.90
37528;DHT22;23372;52.050;4.810;2023-02-08T14:37:48;5.70;99.90
37528;DHT22;23372;52.050;4.810;2023-02-08T14:45:33;5.70;99.90
37528;DHT22;23372;52.050;4.810;2023-02-08T14:48:41;5.60;99.90
37528;DHT22;23372;52.050;4.810;2023-02-08T14:54:01;5.60;99.90
37528;DHT22;23372;52.050;4.810;2023-02-08T14:56:34;5.60;99.90
37528;DHT22;23372;52.050;4.810;2023-02-08T14:59:06;5.60;99.90
37528;DHT22;23372;52.050;4.810;2023-02-08T15:01:45;5.60;99.90
37528;DHT22;23372;52.050;4.810;2023-02-08T15:04:13;5.60;99.90
37528;DHT22;23372;52.050;4.810;2023-02-08T15:09:24;5.60;99.90
37528;DHT22;23372;52.050;4.810;2023-02-08T15:12:05;5.60;99.90
37528;DHT22;23372;52.050;4.810;2023-02-08T15:14:34;5.60;99.90
37528;DHT22;23372;52.050;4.810;2023-02-08T15:17:01;5.60;99.90
37528;DHT22;23372;52.050;4.810;2023-02-08T15:19:30;5.60;99.90
37528;DHT22;23372;52.050;4.810;2023-02-08T15:25:00;5.70;99.90
37528;DHT22;23372;52.050;4.810;2023-02-08T15:27:28;5.80;99.90
37528;DHT22;23372;52.050;4.810;2023-02-08T15:29:54;5.90;99.90
37528;DHT22;23372;52.050;4.810;2023-02-08T15:32:22;5.90;99.90
37528;DHT22;23372;52.050;4.810;2023-02-08T15:34:58;5.90;99.90
37528;DHT22;23372;52.050;4.810;2023-02-08T15:37:25;5.90;99.90
37528;DHT22;23372;52.050;4.810;2023-02-08T15:39:54;5.90;99.90
37528;DHT22;23372;52.050;4.810;2023-02-08T15:42:23;5.90;99.90
37528;DHT22;23372;52.050;4.810;2023-02-08T15:44:49;5.90;99.90
37528;DHT22;23372;52.050;4.810;2023-02-08T15:47:25;5.80;99.90
37528;DHT22;23372;52.050;4.810;2023-02-08T15:49:52;5.70;99.90
37528;DHT22;23372;52.050;4.810;2023-02-08T15:52:22;5.70;99.90
37528;DHT22;23372;52.050;4.810;2023-02-08T15:54:49;5.50;99.90
37528;DHT22;23372;52.050;4.810;2023-02-08T15:57:35;5.50;99.90
37528;DHT22;23372;52.050;4.810;2023-02-08T16:00:07;5.40;99.90
37528;DHT22;23372;52.050;4.810;2023-02-08T16:02:37;5.20;99.90
37528;DHT22;23372;52.050;4.810;2023-02-08T16:05:20;5.20;99.90
37528;DHT22;23372;52.050;4.810;2023-02-08T16:07:46;5.10;99.90
37528;DHT22;23372;52.050;4.810;2023-02-08T16:10:23;4.90;99.90
37528;DHT22;23372;52.050;4.810;2023-02-08T16:12:55;4.80;99.90
37528;DHT22;23372;52.050;4.810;2023-02-08T16:15:44;4.70;99.90
37528;DHT22;23372;52.050;4.810;2023-02-08T16:18:36;4.60;99.90
37528;DHT22;23372;52.050;4.810;2023-02-08T16:21:05;4.50;99.90
37528;DHT22;23372;52.050;4.810;2023-02-08T16:23:32;4.40;99.90
37528;DHT22;23372;52.050;4.810;2023-02-08T16:26:27;4.30;99.90
37528;DHT22;23372;52.050;4.810;2023-02-08T16:28:58;4.20;99.90
37528;DHT22;23372;52.050;4.810;2023-02-08T16:31:25;4.10;99.90
37528;DHT22;23372;52.050;4.810;2023-02-08T16:33:58;4.10;99.90
37528;DHT22;23372;52.050;4.810;2023-02-08T16:36:30;4.00;99.90
37528;DHT22;23372;52.050;4.810;2023-02-08T16:41:57;3.80;99.90
37528;DHT22;23372;52.050;4.810;2023-02-08T16:44:32;3.70;99.90
37528;DHT22;23372;52.050;4.810;2023-02-08T16:46:59;3.60;99.90
37528;DHT22;23372;52.050;4.810;2023-02-08T16:49:25;3.50;99.90
37528;DHT22;23372;52.050;4.810;2023-02-08T16:52:00;3.50;99.90
37528;DHT22;23372;52.050;4.810;2023-02-08T16:54:25;3.30;99.90
37528;DHT22;23372;52.050;4.810;2023-02-08T16:56:52;3.20;99.90
37528;DHT22;23372;52.050;4.810;2023-02-08T16:59:25;3.10;99.90
37528;DHT22;23372;52.050;4.810;2023-02-08T17:01:52;3.00;99.90
37528;DHT22;23372;52.050;4.810;2023-02-08T17:04:18;3.00;99.90
37528;DHT22;23372;52.050;4.810;2023-02-08T17:06:45;2.90;99.90
37528;DHT22;23372;52.050;4.810;2023-02-08T17:09:12;2.70;99.90
37528;DHT22;23372;52.050;4.810;2023-02-08T17:11:39;2.60;99.90
37528;DHT22;23372;52.050;4.810;2023-02-08T17:14:05;2.50;99.90
37528;DHT22;23372;52.050;4.810;2023-02-08T17:16:33;2.40;99.90
37528;DHT22;23372;52.050;4.810;2023-02-08T17:19:00;2.40;99.90
37528;DHT22;23372;52.050;4.810;2023-02-08T17:21:27;2.30;99.90
37528;DHT22;23372;52.050;4.810;2023-02-08T17:23:54;2.10;99.90
37528;DHT22;23372;52.050;4.810;2023-02-08T17:26:35;2.00;99.90
37528;DHT22;23372;52.050;4.810;2023-02-08T17:29:02;1.90;99.90
37528;DHT22;23372;52.050;4.810;2023-02-08T17:31:28;1.80;99.90
37528;DHT22;23372;52.050;4.810;2023-02-08T17:33:54;1.70;99.90
37528;DHT22;23372;52.050;4.810;2023-02-08T17:36:28;1.70;99.90
37528;DHT22;23372;52.050;4.810;2023-02-08T17:38:54;1.70;99.90
37528;DHT22;23372;52.050;4.810;2023-02-08T17:41:20;1.70;99.90
37528;DHT22;23372;52.050;4.810;2023-02-08T17:43:49;1.70;99.90
37528;DHT22;23372;52.050;4.810;2023-02-08T17:46:22;1.70;99.90
37528;DHT22;23372;52.050;4.810;2023-02-08T17:48:47;1.60;99.90
37528;DHT22;23372;52.050;4.810;2023-02-08T17:51:15;1.70;99.90